^^
Station Historical Data
Daily Summary for January 14, 2018 Units:  Both    English   Metric
« Previous Day
Next Day »
Daily Weekly Monthly Yearly Custom
  High: Low: Average:
Temperature: 27.7 °F /  -2.4 °C 21.4 °F /  -5.9 °C 25.9 °F /  -3.4 °C
Dew Point: 25.2 °F /  -3.8 °C 18.3 °F /  -7.6 °C 22.3 °F /  -5.4 °C
Humidity: 91% 81% 86%
Wind Speed: 3.5mph /  5.6km/h - 0.2mph /  0.4km/h
Wind Gust: 8.1mph /  13.0km/h - -
Wind- - ESE
Pressure: 30.8 in /  1041.5 hPa 30.6 in /  1035.4 hPa -
Precipitation: 0 in /  0.0 mm    
Historical Graphs
 
 
Tabular Data for January 14, 2018
Time Temperature Dew Point Pressure Wind Wind Speed Wind Gust Humidity Rainfall Rate (Hourly) solar Conditions
00:01 27.7 °F /  -2.4 °C 24.8 °F /  -4.0 °C 30.8in /  1041.2hPa Calm     89% 0in /  0.0mm WeatherDisplay:10.37 W/m2 FEW
00:06 27.7 °F /  -2.4 °C 24.8 °F /  -4.0 °C 30.8in /  1041.2hPa Calm     89% 0in /  0.0mm WeatherDisplay:10.37 W/m2 FEW
00:11 27.7 °F /  -2.4 °C 24.8 °F /  -4.0 °C 30.8in /  1041.2hPa Calm     89% 0in /  0.0mm WeatherDisplay:10.37 W/m2 FEW
00:16 27.5 °F /  -2.5 °C 24.6 °F /  -4.1 °C 30.8in /  1041.2hPa Calm     89% 0in /  0.0mm WeatherDisplay:10.37 W/m2 FEW
00:21 27.5 °F /  -2.5 °C 24.6 °F /  -4.1 °C 30.8in /  1041.2hPa Calm     89% 0in /  0.0mm WeatherDisplay:10.37 W/m2 FEW
00:26 27.7 °F /  -2.4 °C 24.8 °F /  -4.0 °C 30.8in /  1041.2hPa Calm     89% 0in /  0.0mm WeatherDisplay:10.37 W/m2 FEW
00:31 27.7 °F /  -2.4 °C 24.4 °F /  -4.2 °C 30.8in /  1041.2hPa Calm     88% 0in /  0.0mm WeatherDisplay:10.37 W/m2 FEW
00:36 27.7 °F /  -2.4 °C 24.4 °F /  -4.2 °C 30.8in /  1041.5hPa Calm     88% 0in /  0.0mm WeatherDisplay:10.37 W/m2 FEW
00:41 27.7 °F /  -2.4 °C 24.4 °F /  -4.2 °C 30.8in /  1041.2hPa Calm     88% 0in /  0.0mm WeatherDisplay:10.37 W/m2 FEW
00:45 27.7 °F /  -2.4 °C 24.4 °F /  -4.2 °C 30.8in /  1041.5hPa Calm     88% 0in /  0.0mm WeatherDisplay:10.37 W/m2 FEW
00:51 27.7 °F /  -2.4 °C 24.4 °F /  -4.2 °C 30.8in /  1041.2hPa Calm     88% 0in /  0.0mm WeatherDisplay:10.37 W/m2 FEW
00:59 27.5 °F /  -2.5 °C 24.1 °F /  -4.4 °C 30.8in /  1041.2hPa Calm     87% 0in /  0.0mm WeatherDisplay:10.37 W/m2 FEW
01:04 27.5 °F /  -2.5 °C 24.1 °F /  -4.4 °C 30.8in /  1041.2hPa East 0.2mph /  0.3km/h 1.2mph /  1.9km/h 87% 0in /  0.0mm WeatherDisplay:10.37 W/m2 FEW
01:10 27.5 °F /  -2.5 °C 23.9 °F /  -4.5 °C 30.8in /  1041.2hPa Calm     86% 0in /  0.0mm WeatherDisplay:10.37 W/m2 FEW
01:19 27.5 °F /  -2.5 °C 23.9 °F /  -4.5 °C 30.8in /  1041.2hPa Calm     86% 0in /  0.0mm WeatherDisplay:10.37 W/m2 FEW
01:24 27.5 °F /  -2.5 °C 23.9 °F /  -4.5 °C 30.8in /  1041.2hPa Calm     86% 0in /  0.0mm WeatherDisplay:10.37 W/m2 FEW
01:29 27.5 °F /  -2.5 °C 23.9 °F /  -4.5 °C 30.8in /  1041.2hPa Calm     86% 0in /  0.0mm WeatherDisplay:10.37 W/m2 FEW
01:35 27.5 °F /  -2.5 °C 23.9 °F /  -4.5 °C 30.8in /  1041.2hPa Calm     86% 0in /  0.0mm WeatherDisplay:10.37 W/m2 FEW
01:40 27.5 °F /  -2.5 °C 23.9 °F /  -4.5 °C 30.8in /  1041.2hPa Calm     86% 0in /  0.0mm WeatherDisplay:10.37 W/m2 FEW
01:45 27.5 °F /  -2.5 °C 23.9 °F /  -4.5 °C 30.8in /  1041.2hPa Calm     86% 0in /  0.0mm WeatherDisplay:10.37 W/m2 FEW
01:56 27.3 °F /  -2.6 °C 23.5 °F /  -4.7 °C 30.8in /  1041.2hPa Calm     85% 0in /  0.0mm WeatherDisplay:10.37 W/m2 FEW
02:01 27.3 °F /  -2.6 °C 23.2 °F /  -4.9 °C 30.8in /  1041.2hPa Calm     84% 0in /  0.0mm WeatherDisplay:10.37 W/m2 FEW
02:14 27.3 °F /  -2.6 °C 23.5 °F /  -4.7 °C 30.7in /  1040.9hPa Calm     85% 0in /  0.0mm WeatherDisplay:10.37 W/m2 FEW
02:25 27.3 °F /  -2.6 °C 23.2 °F /  -4.9 °C 30.7in /  1040.9hPa Calm     84% 0in /  0.0mm WeatherDisplay:10.37 W/m2 FEW
02:30 27.3 °F /  -2.6 °C 23.2 °F /  -4.9 °C 30.7in /  1040.9hPa Calm     84% 0in /  0.0mm WeatherDisplay:10.37 W/m2 FEW
02:35 27.1 °F /  -2.7 °C 23 °F /  -5.0 °C 30.7in /  1040.9hPa Calm     84% 0in /  0.0mm WeatherDisplay:10.37 W/m2 FEW
02:37 27.1 °F /  -2.7 °C 22.6 °F /  -5.2 °C 30.7in /  1040.9hPa Calm     83% 0in /  0.0mm WeatherDisplay:10.37 W/m2 FEW
02:42 27.1 °F /  -2.7 °C 23 °F /  -5.0 °C 30.7in /  1040.9hPa Calm     84% 0in /  0.0mm WeatherDisplay:10.37 W/m2 FEW
02:47 27.1 °F /  -2.7 °C 22.8 °F /  -5.1 °C 30.7in /  1040.9hPa Calm     84% 0in /  0.0mm WeatherDisplay:10.37 W/m2 FEW
02:52 27.1 °F /  -2.7 °C 22.8 °F /  -5.1 °C 30.7in /  1040.9hPa Calm     84% 0in /  0.0mm WeatherDisplay:10.37 W/m2 FEW
02:57 27.1 °F /  -2.7 °C 22.8 °F /  -5.1 °C 30.7in /  1040.9hPa Calm     84% 0in /  0.0mm WeatherDisplay:10.37 W/m2 FEW
03:02 27.1 °F /  -2.7 °C 22.8 °F /  -5.1 °C 30.7in /  1040.9hPa Calm     84% 0in /  0.0mm WeatherDisplay:10.37 W/m2 FEW
03:07 27.1 °F /  -2.7 °C 22.6 °F /  -5.2 °C 30.7in /  1040.9hPa Calm     83% 0in /  0.0mm WeatherDisplay:10.37 W/m2 FEW
03:17 27.1 °F /  -2.7 °C 22.8 °F /  -5.1 °C 30.7in /  1040.5hPa Calm     84% 0in /  0.0mm WeatherDisplay:10.37 W/m2 FEW
03:22 27.1 °F /  -2.7 °C 22.8 °F /  -5.1 °C 30.7in /  1040.5hPa Calm     84% 0in /  0.0mm WeatherDisplay:10.37 W/m2 FEW
03:27 27.1 °F /  -2.7 °C 22.8 °F /  -5.1 °C 30.7in /  1040.5hPa Calm     84% 0in /  0.0mm WeatherDisplay:10.37 W/m2 FEW
03:36 27.1 °F /  -2.7 °C 22.8 °F /  -5.1 °C 30.7in /  1040.5hPa Calm     84% 0in /  0.0mm WeatherDisplay:10.37 W/m2 FEW
03:41 27.1 °F /  -2.7 °C 22.8 °F /  -5.1 °C 30.7in /  1040.5hPa Calm     84% 0in /  0.0mm WeatherDisplay:10.37 W/m2 FEW
03:46 27.1 °F /  -2.7 °C 22.8 °F /  -5.1 °C 30.7in /  1040.5hPa Calm     84% 0in /  0.0mm WeatherDisplay:10.37 W/m2 FEW
03:51 27.1 °F /  -2.7 °C 22.8 °F /  -5.1 °C 30.7in /  1040.5hPa Calm     84% 0in /  0.0mm WeatherDisplay:10.37 W/m2 FEW
04:01 27.1 °F /  -2.7 °C 23.2 °F /  -4.9 °C 30.7in /  1040.5hPa Calm     85% 0in /  0.0mm WeatherDisplay:10.37 W/m2 FEW
04:06 27.1 °F /  -2.7 °C 23.2 °F /  -4.9 °C 30.7in /  1040.5hPa Calm     85% 0in /  0.0mm WeatherDisplay:10.37 W/m2 FEW
04:11 27 °F /  -2.8 °C 23.2 °F /  -4.9 °C 30.7in /  1040.5hPa Calm     85% 0in /  0.0mm WeatherDisplay:10.37 W/m2 FEW
04:17 27 °F /  -2.8 °C 23.2 °F /  -4.9 °C 30.7in /  1040.5hPa Calm     85% 0in /  0.0mm WeatherDisplay:10.37 W/m2 FEW
04:25 27 °F /  -2.8 °C 23.2 °F /  -4.9 °C 30.7in /  1040.5hPa Calm     85% 0in /  0.0mm WeatherDisplay:10.37 W/m2 FEW
04:30 27 °F /  -2.8 °C 23.2 °F /  -4.9 °C 30.7in /  1040.5hPa Calm     85% 0in /  0.0mm WeatherDisplay:10.37 W/m2 FEW
04:35 27 °F /  -2.8 °C 23.2 °F /  -4.9 °C 30.7in /  1040.5hPa Calm     85% 0in /  0.0mm WeatherDisplay:10.37 W/m2 FEW
04:45 27 °F /  -2.8 °C 22.8 °F /  -5.1 °C 30.7in /  1040.2hPa Calm     84% 0in /  0.0mm WeatherDisplay:10.37 W/m2 FEW
04:50 27 °F /  -2.8 °C 22.8 °F /  -5.1 °C 30.7in /  1040.2hPa Calm     84% 0in /  0.0mm WeatherDisplay:10.37 W/m2 FEW
04:55 27 °F /  -2.8 °C 23.2 °F /  -4.9 °C 30.7in /  1040.2hPa Calm     85% 0in /  0.0mm WeatherDisplay:10.37 W/m2 FEW
05:00 27 °F /  -2.8 °C 23.2 °F /  -4.9 °C 30.7in /  1040.2hPa Calm     85% 0in /  0.0mm WeatherDisplay:10.37 W/m2 FEW
05:05 27.1 °F /  -2.7 °C 23.2 °F /  -4.9 °C 30.7in /  1040.2hPa Calm     85% 0in /  0.0mm WeatherDisplay:10.37 W/m2 FEW
05:11 27 °F /  -2.8 °C 23.2 °F /  -4.9 °C 30.7in /  1040.2hPa Calm     85% 0in /  0.0mm WeatherDisplay:10.37 W/m2 FEW
05:16 27.1 °F /  -2.7 °C 23.2 °F /  -4.9 °C 30.7in /  1040.2hPa Calm     85% 0in /  0.0mm WeatherDisplay:10.37 W/m2 FEW
05:21 27 °F /  -2.8 °C 23.2 °F /  -4.9 °C 30.7in /  1040.2hPa Calm     85% 0in /  0.0mm WeatherDisplay:10.37 W/m2 FEW
05:31 27 °F /  -2.8 °C 23.2 °F /  -4.9 °C 30.7in /  1040.2hPa Calm     85% 0in /  0.0mm WeatherDisplay:10.37 W/m2 FEW
05:38 27 °F /  -2.8 °C 22.8 °F /  -5.1 °C 30.7in /  1040.2hPa Calm     84% 0in /  0.0mm WeatherDisplay:10.37 W/m2 FEW
05:47 27 °F /  -2.8 °C 23.2 °F /  -4.9 °C 30.7in /  1039.8hPa Calm     85% 0in /  0.0mm WeatherDisplay:10.37 W/m2 FEW
05:54 27 °F /  -2.8 °C 23.2 °F /  -4.9 °C 30.7in /  1039.8hPa Calm     85% 0in /  0.0mm WeatherDisplay:10.37 W/m2 FEW
05:59 27 °F /  -2.8 °C 23.2 °F /  -4.9 °C 30.7in /  1039.8hPa Calm     85% 0in /  0.0mm WeatherDisplay:10.37 W/m2 FEW
06:04 27 °F /  -2.8 °C 22.8 °F /  -5.1 °C 30.7in /  1039.8hPa Calm     84% 0in /  0.0mm WeatherDisplay:10.37 W/m2 FEW
06:09 27 °F /  -2.8 °C 22.8 °F /  -5.1 °C 30.7in /  1039.8hPa Calm     84% 0in /  0.0mm WeatherDisplay:10.37 W/m2 FEW
06:14 27 °F /  -2.8 °C 22.8 °F /  -5.1 °C 30.7in /  1039.8hPa Calm     84% 0in /  0.0mm WeatherDisplay:10.37 W/m2 FEW
06:22 27 °F /  -2.8 °C 23.2 °F /  -4.9 °C 30.7in /  1039.8hPa Calm     85% 0in /  0.0mm WeatherDisplay:10.37 W/m2 FEW
06:27 27 °F /  -2.8 °C 23.2 °F /  -4.9 °C 30.7in /  1039.8hPa Calm     85% 0in /  0.0mm WeatherDisplay:10.37 W/m2 FEW
06:32 27 °F /  -2.8 °C 23.2 °F /  -4.9 °C 30.7in /  1039.8hPa Calm     85% 0in /  0.0mm WeatherDisplay:10.37 W/m2 FEW
06:39 27 °F /  -2.8 °C 23.2 °F /  -4.9 °C 30.7in /  1039.8hPa Calm     85% 0in /  0.0mm WeatherDisplay:10.37 W/m2 FEW
06:50 27 °F /  -2.8 °C 23.2 °F /  -4.9 °C 30.7in /  1039.5hPa Calm     85% 0in /  0.0mm WeatherDisplay:10.37 W/m2 FEW
07:00 27 °F /  -2.8 °C 23.2 °F /  -4.9 °C 30.7in /  1039.5hPa Calm     85% 0in /  0.0mm WeatherDisplay:10.37 W/m2 FEW
07:14 27.1 °F /  -2.7 °C 23.2 °F /  -4.9 °C 30.7in /  1039.5hPa Calm     85% 0in /  0.0mm WeatherDisplay:10.37 W/m2 FEW
07:19 27.1 °F /  -2.7 °C 23.2 °F /  -4.9 °C 30.7in /  1039.5hPa Calm     85% 0in /  0.0mm WeatherDisplay:10.37 W/m2 FEW
07:24 27.1 °F /  -2.7 °C 23.2 °F /  -4.9 °C 30.7in /  1039.5hPa Calm     85% 0in /  0.0mm WeatherDisplay:10.37 W/m2 FEW
07:33 27.1 °F /  -2.7 °C 23.4 °F /  -4.8 °C 30.7in /  1039.5hPa Calm     85% 0in /  0.0mm WeatherDisplay:10.37 W/m2 FEW
07:38 27.1 °F /  -2.7 °C 23.4 °F /  -4.8 °C 30.7in /  1039.2hPa Calm     85% 0in /  0.0mm WeatherDisplay:10.37 W/m2 FEW
07:46 27.1 °F /  -2.7 °C 23 °F /  -5.0 °C 30.7in /  1039.2hPa Calm     84% 0in /  0.0mm WeatherDisplay:10.37 W/m2 FEW
07:59 27.1 °F /  -2.7 °C 23 °F /  -5.0 °C 30.7in /  1039.2hPa Calm     84% 0in /  0.0mm WeatherDisplay:10.37 W/m2 FEW
08:10 27.1 °F /  -2.7 °C 23 °F /  -5.0 °C 30.7in /  1039.2hPa Calm     84% 0in /  0.0mm WeatherDisplay:10.37 W/m2 FEW
08:15 27.1 °F /  -2.7 °C 23 °F /  -5.0 °C 30.7in /  1039.2hPa East 1mph /  1.6km/h 2.3mph /  3.7km/h 84% 0in /  0.0mm WeatherDisplay:10.37 W/m2 FEW
08:23 27.3 °F /  -2.6 °C 23.2 °F /  -4.9 °C 30.7in /  1039.2hPa Calm     84% 0in /  0.0mm WeatherDisplay:10.37 W/m2 FEW
08:28 27.3 °F /  -2.6 °C 23.2 °F /  -4.9 °C 30.7in /  1039.2hPa Calm     84% 0in /  0.0mm WeatherDisplay:10.37 W/m2 FEW
08:38 27.3 °F /  -2.6 °C 23.2 °F /  -4.9 °C 30.7in /  1039.2hPa Calm     84% 0in /  0.0mm WeatherDisplay:10.37 W/m2 FEW
08:43 27.3 °F /  -2.6 °C 23.2 °F /  -4.9 °C 30.7in /  1039.2hPa Calm     84% 0in /  0.0mm WeatherDisplay:10.37 W/m2 FEW
08:49 27.3 °F /  -2.6 °C 25.2 °F /  -3.8 °C 30.7in /  1039.2hPa Calm     91% 0in /  0.0mm WeatherDisplay:10.37 W/m2 FEW
08:55 27.3 °F /  -2.6 °C 23.2 °F /  -4.9 °C 30.7in /  1039.2hPa Calm     84% 0in /  0.0mm WeatherDisplay:10.37 W/m2 FEW
09:00 27.3 °F /  -2.6 °C 25 °F /  -3.9 °C 30.7in /  1039.2hPa Calm     91% 0in /  0.0mm WeatherDisplay:10.37 W/m2 FEW
09:05 27.3 °F /  -2.6 °C 23.4 °F /  -4.8 °C 30.7in /  1039.2hPa Calm     85% 0in /  0.0mm WeatherDisplay:10.37 W/m2 FEW
09:10 27.3 °F /  -2.6 °C 25 °F /  -3.9 °C 30.7in /  1039.2hPa Calm     91% 0in /  0.0mm WeatherDisplay:10.37 W/m2 FEW
09:15 27.3 °F /  -2.6 °C 25 °F /  -3.9 °C 30.7in /  1039.2hPa Calm     91% 0in /  0.0mm WeatherDisplay:10.37 W/m2 FEW
09:20 27.3 °F /  -2.6 °C 23.2 °F /  -4.9 °C 30.7in /  1039.2hPa Calm     84% 0in /  0.0mm WeatherDisplay:10.37 W/m2 FEW
09:25 27.3 °F /  -2.6 °C 23.2 °F /  -4.9 °C 30.7in /  1039.2hPa Calm     84% 0in /  0.0mm WeatherDisplay:10.37 W/m2 FEW
09:30 27.3 °F /  -2.6 °C 23.2 °F /  -4.9 °C 30.7in /  1039.2hPa Calm   1.2mph /  1.9km/h 84% 0in /  0.0mm WeatherDisplay:10.37 W/m2 FEW
09:38 27.3 °F /  -2.6 °C 23.2 °F /  -4.9 °C 30.7in /  1039.2hPa Calm     84% 0in /  0.0mm WeatherDisplay:10.37 W/m2 FEW
09:43 27.3 °F /  -2.6 °C 25.2 °F /  -3.8 °C 30.7in /  1039.2hPa Calm     91% 0in /  0.0mm WeatherDisplay:10.37 W/m2 FEW
09:51 27.3 °F /  -2.6 °C 23.2 °F /  -4.9 °C 30.7in /  1039.2hPa Calm     84% 0in /  0.0mm WeatherDisplay:10.37 W/m2 FEW
09:59 27.3 °F /  -2.6 °C 23.2 °F /  -4.9 °C 30.7in /  1039.5hPa Calm     84% 0in /  0.0mm WeatherDisplay:10.37 W/m2 FEW
10:09 27.3 °F /  -2.6 °C 23.2 °F /  -4.9 °C 30.7in /  1039.5hPa Calm     84% 0in /  0.0mm WeatherDisplay:10.37 W/m2 FEW
10:23 27.3 °F /  -2.6 °C 22.8 °F /  -5.1 °C 30.7in /  1039.5hPa Calm     83% 0in /  0.0mm WeatherDisplay:10.37 W/m2 FEW
10:28 27.3 °F /  -2.6 °C 23.2 °F /  -4.9 °C 30.7in /  1039.5hPa Calm     84% 0in /  0.0mm WeatherDisplay:10.37 W/m2 FEW
10:33 27.3 °F /  -2.6 °C 23.2 °F /  -4.9 °C 30.7in /  1039.5hPa Calm     84% 0in /  0.0mm WeatherDisplay:10.37 W/m2 FEW
10:38 27.3 °F /  -2.6 °C 22.8 °F /  -5.1 °C 30.7in /  1039.5hPa Calm     83% 0in /  0.0mm WeatherDisplay:10.37 W/m2 FEW
10:43 27.3 °F /  -2.6 °C 22.8 °F /  -5.1 °C 30.7in /  1039.5hPa Calm     83% 0in /  0.0mm WeatherDisplay:10.37 W/m2 FEW
10:48 27.3 °F /  -2.6 °C 22.8 °F /  -5.1 °C 30.7in /  1039.5hPa East 0.2mph /  0.3km/h 2.3mph /  3.7km/h 83% 0in /  0.0mm WeatherDisplay:10.37 W/m2 FEW
10:54 27.3 °F /  -2.6 °C 22.8 °F /  -5.1 °C 30.7in /  1039.5hPa Calm     83% 0in /  0.0mm WeatherDisplay:10.37 W/m2 FEW
11:16 27.5 °F /  -2.5 °C 23 °F /  -5.0 °C 30.7in /  1039.5hPa East 1.1mph /  1.8km/h 3.5mph /  5.6km/h 83% 0in /  0.0mm WeatherDisplay:10.37 W/m2 FEW
11:25 27.5 °F /  -2.5 °C 22.6 °F /  -5.2 °C 30.7in /  1039.5hPa Calm     82% 0in /  0.0mm WeatherDisplay:10.37 W/m2 FEW
11:30 27.5 °F /  -2.5 °C 22.6 °F /  -5.2 °C 30.7in /  1039.5hPa Calm     82% 0in /  0.0mm WeatherDisplay:10.37 W/m2 FEW
11:37 27.5 °F /  -2.5 °C 22.6 °F /  -5.2 °C 30.7in /  1039.5hPa Calm     82% 0in /  0.0mm WeatherDisplay:10.37 W/m2 FEW
11:49 27.5 °F /  -2.5 °C 22.6 °F /  -5.2 °C 30.7in /  1039.2hPa East 1.9mph /  3.1km/h 3.5mph /  5.6km/h 82% 0in /  0.0mm WeatherDisplay:10.37 W/m2 FEW
12:00 27.5 °F /  -2.5 °C 22.5 °F /  -5.3 °C 30.7in /  1039.2hPa Calm     81% 0in /  0.0mm WeatherDisplay:10.37 W/m2 FEW
12:05 27.5 °F /  -2.5 °C 22.6 °F /  -5.2 °C 30.7in /  1039.2hPa Calm     82% 0in /  0.0mm WeatherDisplay:10.37 W/m2 FEW
12:10 27.5 °F /  -2.5 °C 22.6 °F /  -5.2 °C 30.7in /  1039.2hPa Calm     82% 0in /  0.0mm WeatherDisplay:10.37 W/m2 FEW
12:20 27.5 °F /  -2.5 °C 22.6 °F /  -5.2 °C 30.7in /  1039.2hPa Calm     82% 0in /  0.0mm WeatherDisplay:10.37 W/m2 FEW
12:29 27.7 °F /  -2.4 °C 22.8 °F /  -5.1 °C 30.7in /  1039.2hPa Calm     82% 0in /  0.0mm WeatherDisplay:10.37 W/m2 FEW
14:27 27.7 °F /  -2.4 °C 23.4 °F /  -4.8 °C 30.7in /  1038.1hPa Calm     84% 0in /  0.0mm WeatherDisplay:10.37 W/m2 CLR
14:33 27.7 °F /  -2.4 °C 23.4 °F /  -4.8 °C 30.7in /  1038.1hPa Calm     84% 0in /  0.0mm WeatherDisplay:10.37 W/m2 FEW
14:38 27.7 °F /  -2.4 °C 23.7 °F /  -4.6 °C 30.7in /  1038.1hPa Calm     85% 0in /  0.0mm WeatherDisplay:10.37 W/m2 FEW
14:43 27.7 °F /  -2.4 °C 23.7 °F /  -4.6 °C 30.7in /  1038.1hPa Calm     85% 0in /  0.0mm WeatherDisplay:10.37 W/m2 FEW
14:48 27.7 °F /  -2.4 °C 23.7 °F /  -4.6 °C 30.7in /  1038.1hPa Calm     85% 0in /  0.0mm WeatherDisplay:10.37 W/m2 FEW
14:53 27.5 °F /  -2.5 °C 23.5 °F /  -4.7 °C 30.7in /  1038.1hPa Calm     85% 0in /  0.0mm WeatherDisplay:10.37 W/m2 FEW
15:05 27.5 °F /  -2.5 °C 23.4 °F /  -4.8 °C 30.7in /  1038.1hPa Calm     84% 0in /  0.0mm WeatherDisplay:10.37 W/m2 FEW
15:10 27.3 °F /  -2.6 °C 23.2 °F /  -4.9 °C 30.7in /  1038.1hPa Calm     84% 0in /  0.0mm WeatherDisplay:10.37 W/m2 FEW
15:15 27.3 °F /  -2.6 °C 23.2 °F /  -4.9 °C 30.7in /  1038.1hPa Calm     84% 0in /  0.0mm WeatherDisplay:10.37 W/m2 FEW
15:20 27.3 °F /  -2.6 °C 23.2 °F /  -4.9 °C 30.7in /  1038.1hPa Calm     84% 0in /  0.0mm WeatherDisplay:10.37 W/m2 FEW
15:25 27.3 °F /  -2.6 °C 23.2 °F /  -4.9 °C 30.7in /  1038.1hPa Calm     84% 0in /  0.0mm WeatherDisplay:10.37 W/m2 FEW
15:30 27.3 °F /  -2.6 °C 23.2 °F /  -4.9 °C 30.7in /  1038.1hPa Calm     84% 0in /  0.0mm WeatherDisplay:10.37 W/m2 FEW
15:44 27.3 °F /  -2.6 °C 23.2 °F /  -4.9 °C 30.7in /  1038.1hPa Calm     84% 0in /  0.0mm WeatherDisplay:10.37 W/m2 FEW
15:49 27.3 °F /  -2.6 °C 23.2 °F /  -4.9 °C 30.7in /  1038.1hPa ESE 0.4mph /  0.6km/h 1mph /  1.6km/h 84% 0in /  0.0mm WeatherDisplay:10.37 W/m2 FEW
15:59 27.1 °F /  -2.7 °C 22.6 °F /  -5.2 °C 30.6in /  1037.8hPa Calm   1.2mph /  1.9km/h 83% 0in /  0.0mm WeatherDisplay:10.37 W/m2 FEW
16:13 27.1 °F /  -2.7 °C 22.6 °F /  -5.2 °C 30.6in /  1037.8hPa Calm     83% 0in /  0.0mm WeatherDisplay:10.37 W/m2 FEW
16:18 27.1 °F /  -2.7 °C 22.6 °F /  -5.2 °C 30.6in /  1037.8hPa Calm   1.2mph /  1.9km/h 83% 0in /  0.0mm WeatherDisplay:10.37 W/m2 FEW
16:23 27.1 °F /  -2.7 °C 22.6 °F /  -5.2 °C 30.6in /  1037.8hPa ESE 0.8mph /  1.3km/h   83% 0in /  0.0mm WeatherDisplay:10.37 W/m2 FEW
16:28 27 °F /  -2.8 °C 22.5 °F /  -5.3 °C 30.6in /  1037.8hPa Calm     83% 0in /  0.0mm WeatherDisplay:10.37 W/m2 FEW
16:39 27 °F /  -2.8 °C 22.6 °F /  -5.2 °C 30.6in /  1037.8hPa ESE 0.8mph /  1.3km/h 2mph /  3.2km/h 84% 0in /  0.0mm WeatherDisplay:10.37 W/m2 FEW
16:44 27 °F /  -2.8 °C 22.6 °F /  -5.2 °C 30.6in /  1037.8hPa ESE 0.2mph /  0.3km/h   84% 0in /  0.0mm WeatherDisplay:10.37 W/m2 FEW
16:49 26.8 °F /  -2.9 °C 22.6 °F /  -5.2 °C 30.6in /  1037.8hPa Calm     84% 0in /  0.0mm WeatherDisplay:10.37 W/m2 FEW
16:54 26.8 °F /  -2.9 °C 22.6 °F /  -5.2 °C 30.6in /  1037.8hPa Calm     84% 0in /  0.0mm WeatherDisplay:10.37 W/m2 FEW
17:11 26.8 °F /  -2.9 °C 22.5 °F /  -5.3 °C 30.6in /  1037.5hPa Calm     84% 0in /  0.0mm WeatherDisplay:10.37 W/m2 FEW
17:16 26.6 °F /  -3.0 °C 22.5 °F /  -5.3 °C 30.6in /  1037.5hPa Calm     84% 0in /  0.0mm WeatherDisplay:10.37 W/m2 FEW
17:21 26.4 °F /  -3.1 °C 22.3 °F /  -5.4 °C 30.6in /  1037.5hPa ESE 0.8mph /  1.3km/h 3.5mph /  5.6km/h 84% 0in /  0.0mm WeatherDisplay:10.37 W/m2 FEW
17:26 26.4 °F /  -3.1 °C 22.3 °F /  -5.4 °C 30.6in /  1037.5hPa Calm     84% 0in /  0.0mm WeatherDisplay:10.37 W/m2 FEW
17:31 26.4 °F /  -3.1 °C 22.3 °F /  -5.4 °C 30.6in /  1037.5hPa SSE 1.9mph /  3.1km/h 6.9mph /  11.1km/h 84% 0in /  0.0mm WeatherDisplay:10.37 W/m2 FEW
17:36 26.4 °F /  -3.1 °C 22.3 °F /  -5.4 °C 30.6in /  1037.5hPa SE 2.8mph /  4.5km/h 4.6mph /  7.4km/h 84% 0in /  0.0mm WeatherDisplay:10.37 W/m2 FEW
17:43 26.4 °F /  -3.1 °C 22.3 °F /  -5.4 °C 30.6in /  1037.5hPa Calm   3.5mph /  5.6km/h 84% 0in /  0.0mm WeatherDisplay:10.37 W/m2 FEW
17:49 26.2 °F /  -3.2 °C 22.5 °F /  -5.3 °C 30.6in /  1037.5hPa ESE 1.2mph /  1.9km/h 5.8mph /  9.3km/h 85% 0in /  0.0mm WeatherDisplay:10.37 W/m2 FEW
17:54 26.2 °F /  -3.2 °C 22.3 °F /  -5.4 °C 30.6in /  1037.5hPa ESE 3.1mph /  5.0km/h 4.6mph /  7.4km/h 85% 0in /  0.0mm WeatherDisplay:10.37 W/m2 FEW
17:59 26.2 °F /  -3.2 °C 22.6 °F /  -5.2 °C 30.6in /  1037.5hPa SE 2.5mph /  4.0km/h 4.6mph /  7.4km/h 86% 0in /  0.0mm WeatherDisplay:10.37 W/m2 FEW
18:04 26.1 °F /  -3.3 °C 22.5 °F /  -5.3 °C 30.6in /  1037.1hPa Calm   3.5mph /  5.6km/h 86% 0in /  0.0mm WeatherDisplay:10.37 W/m2 FEW
18:09 26.1 °F /  -3.3 °C 22.5 °F /  -5.3 °C 30.6in /  1037.5hPa SE 0.7mph /  1.1km/h 1.2mph /  1.9km/h 86% 0in /  0.0mm WeatherDisplay:10.37 W/m2 FEW
18:14 25.9 °F /  -3.4 °C 22.6 °F /  -5.2 °C 30.6in /  1037.5hPa SE 0.4mph /  0.6km/h   87% 0in /  0.0mm WeatherDisplay:10.37 W/m2 FEW
18:21 25.7 °F /  -3.5 °C 22.5 °F /  -5.3 °C 30.6in /  1037.1hPa SE 3.4mph /  5.5km/h 7mph /  11.3km/h 87% 0in /  0.0mm WeatherDisplay:10.37 W/m2 FEW
18:26 25.3 °F /  -3.7 °C 22.1 °F /  -5.5 °C 30.6in /  1037.1hPa Calm     87% 0in /  0.0mm WeatherDisplay:10.37 W/m2 FEW
18:34 25 °F /  -3.9 °C 21.7 °F /  -5.7 °C 30.6in /  1037.5hPa ESE 0.5mph /  0.8km/h 3.5mph /  5.6km/h 87% 0in /  0.0mm WeatherDisplay:10.37 W/m2 FEW
18:40 24.6 °F /  -4.1 °C 21.4 °F /  -5.9 °C 30.6in /  1037.1hPa Calm     87% 0in /  0.0mm WeatherDisplay:10.37 W/m2 FEW
18:45 24.4 °F /  -4.2 °C 21.2 °F /  -6.0 °C 30.6in /  1037.1hPa SE 0.7mph /  1.1km/h 4.6mph /  7.4km/h 87% 0in /  0.0mm WeatherDisplay:10.37 W/m2 FEW
18:50 24.3 °F /  -4.3 °C 21.4 °F /  -5.9 °C 30.6in /  1037.1hPa Calm     88% 0in /  0.0mm WeatherDisplay:10.37 W/m2 FEW
19:05 23.7 °F /  -4.6 °C 20.7 °F /  -6.3 °C 30.6in /  1037.1hPa Calm     88% 0in /  0.0mm WeatherDisplay:10.37 W/m2 FEW
19:14 23.4 °F /  -4.8 °C 20.5 °F /  -6.4 °C 30.6in /  1036.8hPa Calm     89% 0in /  0.0mm WeatherDisplay:10.37 W/m2 FEW
19:24 22.6 °F /  -5.2 °C 19.9 °F /  -6.7 °C 30.6in /  1036.8hPa Calm     89% 0in /  0.0mm WeatherDisplay:10.37 W/m2 FEW
19:29 22.5 °F /  -5.3 °C 19.6 °F /  -6.9 °C 30.6in /  1036.8hPa Calm     89% 0in /  0.0mm WeatherDisplay:10.37 W/m2 FEW
19:34 22.3 °F /  -5.4 °C 19.8 °F /  -6.8 °C 30.6in /  1036.8hPa Calm     90% 0in /  0.0mm WeatherDisplay:10.37 W/m2 FEW
19:39 22.1 °F /  -5.5 °C 19.6 °F /  -6.9 °C 30.6in /  1036.8hPa Calm     90% 0in /  0.0mm WeatherDisplay:10.37 W/m2 FEW
19:44 21.9 °F /  -5.6 °C 19.4 °F /  -7.0 °C 30.6in /  1036.8hPa Calm     90% 0in /  0.0mm WeatherDisplay:10.37 W/m2 FEW
19:49 21.7 °F /  -5.7 °C 19.2 °F /  -7.1 °C 30.6in /  1036.8hPa Calm     90% 0in /  0.0mm WeatherDisplay:10.37 W/m2 FEW
19:59 21.6 °F /  -5.8 °C 19 °F /  -7.2 °C 30.6in /  1036.8hPa Calm     90% 0in /  0.0mm WeatherDisplay:10.37 W/m2 FEW
20:05 21.6 °F /  -5.8 °C 19 °F /  -7.2 °C 30.6in /  1036.8hPa Calm     90% 0in /  0.0mm WeatherDisplay:10.37 W/m2 FEW
20:10 21.6 °F /  -5.8 °C 19.4 °F /  -7.0 °C 30.6in /  1036.8hPa ESE 0.9mph /  1.4km/h 3.5mph /  5.6km/h 91% 0in /  0.0mm WeatherDisplay:10.37 W/m2 FEW
20:15 21.7 °F /  -5.7 °C 19.6 °F /  -6.9 °C 30.6in /  1036.8hPa Calm     91% 0in /  0.0mm WeatherDisplay:10.37 W/m2 FEW
20:20 21.7 °F /  -5.7 °C 19.6 °F /  -6.9 °C 30.6in /  1036.8hPa Calm     91% 0in /  0.0mm WeatherDisplay:10.37 W/m2 FEW
20:25 21.9 °F /  -5.6 °C 19.8 °F /  -6.8 °C 30.6in /  1036.8hPa SE 0.4mph /  0.6km/h 3mph /  4.8km/h 91% 0in /  0.0mm WeatherDisplay:10.37 W/m2 FEW
20:30 21.9 °F /  -5.6 °C 19.6 °F /  -6.9 °C 30.6in /  1036.5hPa ESE 0.2mph /  0.3km/h 3.5mph /  5.6km/h 90% 0in /  0.0mm WeatherDisplay:10.37 W/m2 FEW
20:37 22.1 °F /  -5.5 °C 19.6 °F /  -6.9 °C 30.6in /  1036.5hPa Calm   3.5mph /  5.6km/h 90% 0in /  0.0mm WeatherDisplay:10.37 W/m2 FEW
20:42 22.3 °F /  -5.4 °C 19.6 °F /  -6.9 °C 30.6in /  1036.5hPa Calm     89% 0in /  0.0mm WeatherDisplay:10.37 W/m2 FEW
20:47 22.3 °F /  -5.4 °C 19.6 °F /  -6.9 °C 30.6in /  1036.5hPa Calm   4.6mph /  7.4km/h 89% 0in /  0.0mm WeatherDisplay:10.37 W/m2 FEW
20:52 22.3 °F /  -5.4 °C 19.6 °F /  -6.9 °C 30.6in /  1036.5hPa Calm     89% 0in /  0.0mm WeatherDisplay:10.37 W/m2 FEW
20:57 22.3 °F /  -5.4 °C 19.6 °F /  -6.9 °C 30.6in /  1036.5hPa Calm     89% 0in /  0.0mm WeatherDisplay:10.37 W/m2 FEW
21:04 22.5 °F /  -5.3 °C 19.6 °F /  -6.9 °C 30.6in /  1036.5hPa SE 2.5mph /  4.0km/h 3.5mph /  5.6km/h 89% 0in /  0.0mm WeatherDisplay:10.37 W/m2 FEW
21:10 22.5 °F /  -5.3 °C 19.4 °F /  -7.0 °C 30.6in /  1036.5hPa Calm     88% 0in /  0.0mm WeatherDisplay:10.37 W/m2 FEW
21:15 22.5 °F /  -5.3 °C 19.4 °F /  -7.0 °C 30.6in /  1036.5hPa SE 1.7mph /  2.7km/h 3.5mph /  5.6km/h 88% 0in /  0.0mm WeatherDisplay:10.37 W/m2 FEW
21:27 22.3 °F /  -5.4 °C 19.2 °F /  -7.1 °C 30.6in /  1036.5hPa Calm     88% 0in /  0.0mm WeatherDisplay:10.37 W/m2 FEW
21:33 22.3 °F /  -5.4 °C 19 °F /  -7.2 °C 30.6in /  1036.1hPa SE 1.9mph /  3.1km/h 3.5mph /  5.6km/h 87% 0in /  0.0mm WeatherDisplay:10.37 W/m2 FEW
21:45 22.3 °F /  -5.4 °C 19 °F /  -7.2 °C 30.6in /  1036.1hPa SE 0.6mph /  1.0km/h 3.5mph /  5.6km/h 87% 0in /  0.0mm WeatherDisplay:10.37 W/m2 FEW
21:50 22.3 °F /  -5.4 °C 19 °F /  -7.2 °C 30.6in /  1036.1hPa SE 1.1mph /  1.8km/h 2.3mph /  3.7km/h 87% 0in /  0.0mm WeatherDisplay:10.37 W/m2 FEW
21:55 22.3 °F /  -5.4 °C 19 °F /  -7.2 °C 30.6in /  1036.1hPa SE 1.1mph /  1.8km/h 4.6mph /  7.4km/h 87% 0in /  0.0mm WeatherDisplay:10.37 W/m2 FEW
22:05 22.1 °F /  -5.5 °C 18.9 °F /  -7.3 °C 30.6in /  1036.5hPa Calm     87% 0in /  0.0mm WeatherDisplay:10.37 W/m2 FEW
22:10 22.1 °F /  -5.5 °C 19 °F /  -7.2 °C 30.6in /  1036.1hPa Calm     88% 0in /  0.0mm WeatherDisplay:10.37 W/m2 FEW
22:15 22.1 °F /  -5.5 °C 19 °F /  -7.2 °C 30.6in /  1036.1hPa ESE 0.2mph /  0.3km/h 2.3mph /  3.7km/h 88% 0in /  0.0mm WeatherDisplay:10.37 W/m2 FEW
22:20 22.1 °F /  -5.5 °C 19 °F /  -7.2 °C 30.6in /  1036.1hPa ESE 0.3mph /  0.5km/h 3.5mph /  5.6km/h 88% 0in /  0.0mm WeatherDisplay:10.37 W/m2 FEW
22:25 22.1 °F /  -5.5 °C 19 °F /  -7.2 °C 30.6in /  1036.1hPa ESE 1.6mph /  2.6km/h 3.5mph /  5.6km/h 88% 0in /  0.0mm WeatherDisplay:10.37 W/m2 FEW
22:30 22.1 °F /  -5.5 °C 19 °F /  -7.2 °C 30.6in /  1036.1hPa Calm     88% 0in /  0.0mm WeatherDisplay:10.37 W/m2 FEW
22:38 22.1 °F /  -5.5 °C 19.4 °F /  -7.0 °C 30.6in /  1036.1hPa Calm     89% 0in /  0.0mm WeatherDisplay:10.37 W/m2 FEW
22:43 22.1 °F /  -5.5 °C 19.4 °F /  -7.0 °C 30.6in /  1036.1hPa Calm     89% 0in /  0.0mm WeatherDisplay:10.37 W/m2 FEW
22:48 22.1 °F /  -5.5 °C 19 °F /  -7.2 °C 30.6in /  1035.8hPa SE 0.9mph /  1.4km/h 3.5mph /  5.6km/h 88% 0in /  0.0mm WeatherDisplay:10.37 W/m2 FEW
22:53 21.9 °F /  -5.6 °C 18.9 °F /  -7.3 °C 30.6in /  1035.8hPa Calm     88% 0in /  0.0mm WeatherDisplay:10.37 W/m2 FEW
23:07 21.7 °F /  -5.7 °C 18.9 °F /  -7.3 °C 30.6in /  1035.8hPa Calm     88% 0in /  0.0mm WeatherDisplay:10.37 W/m2 FEW
23:12 21.7 °F /  -5.7 °C 18.7 °F /  -7.4 °C 30.6in /  1035.8hPa Calm   3.5mph /  5.6km/h 88% 0in /  0.0mm WeatherDisplay:10.37 W/m2 FEW
23:22 21.6 °F /  -5.8 °C 18.7 °F /  -7.4 °C 30.6in /  1035.4hPa Calm     88% 0in /  0.0mm WeatherDisplay:10.37 W/m2 FEW
23:28 21.6 °F /  -5.8 °C 18.5 °F /  -7.5 °C 30.6in /  1035.4hPa SSW 1.8mph /  2.9km/h 5.8mph /  9.3km/h 88% 0in /  0.0mm WeatherDisplay:10.37 W/m2 FEW
23:33 21.4 °F /  -5.9 °C 18.3 °F /  -7.6 °C 30.6in /  1035.4hPa ESE 2.5mph /  4.0km/h 4mph /  6.4km/h 88% 0in /  0.0mm WeatherDisplay:10.37 W/m2 FEW
23:38 21.4 °F /  -5.9 °C 18.3 °F /  -7.6 °C 30.6in /  1035.4hPa SE 0.2mph /  0.3km/h 3mph /  4.8km/h 88% 0in /  0.0mm WeatherDisplay:10.37 W/m2 FEW
23:43 21.4 °F /  -5.9 °C 18.3 °F /  -7.6 °C 30.6in /  1035.4hPa SSE 3.5mph /  5.6km/h 8.1mph /  13.0km/h 88% 0in /  0.0mm WeatherDisplay:10.37 W/m2 FEW
Tuulensuunkaari, Veikkola, Suomi
Compliments of Weather Underground - 2.25 mb